sensor_id;sensor_type;location;lat;lon;timestamp;temperature;humidity
33594;DHT22;19920;52.242;20.940;2022-11-15T00:01:51;7.20;99.90
33594;DHT22;19920;52.242;20.940;2022-11-15T00:04:17;7.30;99.90
33594;DHT22;19920;52.242;20.940;2022-11-15T00:06:42;7.20;99.90
33594;DHT22;19920;52.242;20.940;2022-11-15T00:09:08;7.20;99.90
33594;DHT22;19920;52.242;20.940;2022-11-15T00:11:33;7.20;99.90
33594;DHT22;19920;52.242;20.940;2022-11-15T00:13:59;7.20;99.90
33594;DHT22;19920;52.242;20.940;2022-11-15T00:16:27;7.20;99.90
33594;DHT22;19920;52.242;20.940;2022-11-15T00:18:53;7.20;99.90
33594;DHT22;19920;52.242;20.940;2022-11-15T00:21:19;7.10;99.90
33594;DHT22;19920;52.242;20.940;2022-11-15T00:23:44;7.10;99.90
33594;DHT22;19920;52.242;20.940;2022-11-15T00:26:14;7.10;99.90
33594;DHT22;19920;52.242;20.940;2022-11-15T00:28:41;7.10;99.90
33594;DHT22;19920;52.242;20.940;2022-11-15T00:31:12;7.20;99.90
33594;DHT22;19920;52.242;20.940;2022-11-15T00:33:38;7.20;99.90
33594;DHT22;19920;52.242;20.940;2022-11-15T00:36:06;7.30;99.90
33594;DHT22;19920;52.242;20.940;2022-11-15T00:38:33;7.30;99.90
33594;DHT22;19920;52.242;20.940;2022-11-15T00:41:00;7.30;99.90
33594;DHT22;19920;52.242;20.940;2022-11-15T00:43:26;7.30;99.90
33594;DHT22;19920;52.242;20.940;2022-11-15T00:45:51;7.30;99.90
33594;DHT22;19920;52.242;20.940;2022-11-15T00:48:17;7.20;99.90
33594;DHT22;19920;52.242;20.940;2022-11-15T00:50:43;7.30;99.90
33594;DHT22;19920;52.242;20.940;2022-11-15T00:53:09;7.20;99.90
33594;DHT22;19920;52.242;20.940;2022-11-15T00:55:34;7.30;99.90
33594;DHT22;19920;52.242;20.940;2022-11-15T00:58:00;7.20;99.90
33594;DHT22;19920;52.242;20.940;2022-11-15T01:00:26;7.30;99.90
33594;DHT22;19920;52.242;20.940;2022-11-15T01:02:52;7.20;99.90
33594;DHT22;19920;52.242;20.940;2022-11-15T01:05:18;7.20;99.90
33594;DHT22;19920;52.242;20.940;2022-11-15T01:07:43;7.30;99.90
33594;DHT22;19920;52.242;20.940;2022-11-15T01:10:09;7.30;99.90
33594;DHT22;19920;52.242;20.940;2022-11-15T01:12:35;7.20;99.90
33594;DHT22;19920;52.242;20.940;2022-11-15T01:15:01;7.30;99.90
33594;DHT22;19920;52.242;20.940;2022-11-15T01:17:26;7.20;99.90
33594;DHT22;19920;52.242;20.940;2022-11-15T01:19:52;7.30;99.90
33594;DHT22;19920;52.242;20.940;2022-11-15T01:22:18;7.30;99.90
33594;DHT22;19920;52.242;20.940;2022-11-15T01:24:44;7.30;99.90
33594;DHT22;19920;52.242;20.940;2022-11-15T01:27:09;7.30;99.90
33594;DHT22;19920;52.242;20.940;2022-11-15T01:29:35;7.20;99.90
33594;DHT22;19920;52.242;20.940;2022-11-15T01:32:01;7.10;99.90
33594;DHT22;19920;52.242;20.940;2022-11-15T01:34:26;7.20;99.90
33594;DHT22;19920;52.242;20.940;2022-11-15T01:36:52;7.20;99.90
33594;DHT22;19920;52.242;20.940;2022-11-15T01:39:18;7.20;99.90
33594;DHT22;19920;52.242;20.940;2022-11-15T01:41:44;7.20;99.90
33594;DHT22;19920;52.242;20.940;2022-11-15T01:46:54;7.20;99.90
33594;DHT22;19920;52.242;20.940;2022-11-15T01:49:21;7.10;99.90
33594;DHT22;19920;52.242;20.940;2022-11-15T01:51:47;7.20;99.90
33594;DHT22;19920;52.242;20.940;2022-11-15T01:54:16;7.20;99.90
33594;DHT22;19920;52.242;20.940;2022-11-15T01:56:49;7.20;99.90
33594;DHT22;19920;52.242;20.940;2022-11-15T01:59:15;7.20;99.90
33594;DHT22;19920;52.242;20.940;2022-11-15T02:01:41;7.20;99.90
33594;DHT22;19920;52.242;20.940;2022-11-15T02:04:17;7.20;99.90
33594;DHT22;19920;52.242;20.940;2022-11-15T02:06:44;7.10;99.90
33594;DHT22;19920;52.242;20.940;2022-11-15T02:09:11;7.20;99.90
33594;DHT22;19920;52.242;20.940;2022-11-15T02:11:37;7.20;99.90
33594;DHT22;19920;52.242;20.940;2022-11-15T02:14:04;7.20;99.90
33594;DHT22;19920;52.242;20.940;2022-11-15T02:25:11;7.00;99.90
33594;DHT22;19920;52.242;20.940;2022-11-15T02:33:19;7.00;99.90
33594;DHT22;19920;52.242;20.940;2022-11-15T02:38:37;7.00;99.90
33594;DHT22;19920;52.242;20.940;2022-11-15T02:41:09;7.10;99.90
33594;DHT22;19920;52.242;20.940;2022-11-15T02:49:35;7.10;99.90
33594;DHT22;19920;52.242;20.940;2022-11-15T02:52:03;7.10;99.90
33594;DHT22;19920;52.242;20.940;2022-11-15T02:54:31;6.90;99.90
33594;DHT22;19920;52.242;20.940;2022-11-15T02:57:16;7.00;99.90
33594;DHT22;19920;52.242;20.940;2022-11-15T03:00:04;6.90;99.90
33594;DHT22;19920;52.242;20.940;2022-11-15T03:05:37;6.90;99.90
33594;DHT22;19920;52.242;20.940;2022-11-15T03:08:17;7.00;99.90
33594;DHT22;19920;52.242;20.940;2022-11-15T03:18:34;6.90;99.90
33594;DHT22;19920;52.242;20.940;2022-11-15T03:21:04;6.90;99.90
33594;DHT22;19920;52.242;20.940;2022-11-15T03:23:30;6.90;99.90
33594;DHT22;19920;52.242;20.940;2022-11-15T03:25:58;6.90;99.90
33594;DHT22;19920;52.242;20.940;2022-11-15T03:28:41;6.90;99.90
33594;DHT22;19920;52.242;20.940;2022-11-15T03:31:09;6.90;99.90
33594;DHT22;19920;52.242;20.940;2022-11-15T03:33:58;6.80;99.90
33594;DHT22;19920;52.242;20.940;2022-11-15T03:36:26;6.80;99.90
33594;DHT22;19920;52.242;20.940;2022-11-15T03:38:58;6.90;99.90
33594;DHT22;19920;52.242;20.940;2022-11-15T03:41:33;6.90;99.90
33594;DHT22;19920;52.242;20.940;2022-11-15T03:46:46;7.00;99.90
33594;DHT22;19920;52.242;20.940;2022-11-15T03:49:27;7.00;99.90
33594;DHT22;19920;52.242;20.940;2022-11-15T03:51:57;6.90;99.90
33594;DHT22;19920;52.242;20.940;2022-11-15T03:54:23;7.00;99.90
33594;DHT22;19920;52.242;20.940;2022-11-15T03:56:49;6.90;99.90
33594;DHT22;19920;52.242;20.940;2022-11-15T03:59:14;6.90;99.90
33594;DHT22;19920;52.242;20.940;2022-11-15T04:01:40;6.90;99.90
33594;DHT22;19920;52.242;20.940;2022-11-15T04:04:06;7.00;99.90
33594;DHT22;19920;52.242;20.940;2022-11-15T04:06:31;6.90;99.90
33594;DHT22;19920;52.242;20.940;2022-11-15T04:08:57;7.00;99.90
33594;DHT22;19920;52.242;20.940;2022-11-15T04:11:23;7.00;99.90
33594;DHT22;19920;52.242;20.940;2022-11-15T04:13:48;7.00;99.90
33594;DHT22;19920;52.242;20.940;2022-11-15T04:16:14;6.90;99.90
33594;DHT22;19920;52.242;20.940;2022-11-15T04:18:39;6.90;99.90
33594;DHT22;19920;52.242;20.940;2022-11-15T04:21:05;7.00;99.90
33594;DHT22;19920;52.242;20.940;2022-11-15T04:23:49;6.90;99.90
33594;DHT22;19920;52.242;20.940;2022-11-15T04:26:30;6.90;99.90
33594;DHT22;19920;52.242;20.940;2022-11-15T04:28:56;7.00;99.90
33594;DHT22;19920;52.242;20.940;2022-11-15T04:31:40;7.00;99.90
33594;DHT22;19920;52.242;20.940;2022-11-15T04:34:06;7.00;99.90
33594;DHT22;19920;52.242;20.940;2022-11-15T04:36:31;6.90;99.90
33594;DHT22;19920;52.242;20.940;2022-11-15T04:39:16;6.90;99.90
33594;DHT22;19920;52.242;20.940;2022-11-15T04:41:41;7.00;99.90
33594;DHT22;19920;52.242;20.940;2022-11-15T04:44:07;6.90;99.90
33594;DHT22;19920;52.242;20.940;2022-11-15T04:46:32;7.00;99.90
33594;DHT22;19920;52.242;20.940;2022-11-15T04:48:58;7.00;99.90
33594;DHT22;19920;52.242;20.940;2022-11-15T04:51:24;6.90;99.90
33594;DHT22;19920;52.242;20.940;2022-11-15T04:53:50;6.80;99.90
33594;DHT22;19920;52.242;20.940;2022-11-15T04:56:15;6.80;99.90
33594;DHT22;19920;52.242;20.940;2022-11-15T04:58:41;6.80;99.90
33594;DHT22;19920;52.242;20.940;2022-11-15T05:01:11;6.80;99.90
33594;DHT22;19920;52.242;20.940;2022-11-15T05:03:37;6.80;99.90
33594;DHT22;19920;52.242;20.940;2022-11-15T05:06:21;6.80;99.90
33594;DHT22;19920;52.242;20.940;2022-11-15T05:08:47;6.80;99.90
33594;DHT22;19920;52.242;20.940;2022-11-15T05:11:13;6.90;99.90
33594;DHT22;19920;52.242;20.940;2022-11-15T05:13:38;6.80;99.90
33594;DHT22;19920;52.242;20.940;2022-11-15T05:16:04;6.80;99.90
33594;DHT22;19920;52.242;20.940;2022-11-15T05:18:29;6.80;99.90
33594;DHT22;19920;52.242;20.940;2022-11-15T05:20:55;6.80;99.90
33594;DHT22;19920;52.242;20.940;2022-11-15T05:23:21;6.80;99.90
33594;DHT22;19920;52.242;20.940;2022-11-15T05:25:47;6.80;99.90
33594;DHT22;19920;52.242;20.940;2022-11-15T05:28:12;6.80;99.90
33594;DHT22;19920;52.242;20.940;2022-11-15T05:30:38;6.80;99.90
33594;DHT22;19920;52.242;20.940;2022-11-15T05:33:04;6.70;99.90
33594;DHT22;19920;52.242;20.940;2022-11-15T05:35:35;6.60;99.90
33594;DHT22;19920;52.242;20.940;2022-11-15T05:38:03;6.60;99.90
33594;DHT22;19920;52.242;20.940;2022-11-15T05:40:30;6.60;99.90
33594;DHT22;19920;52.242;20.940;2022-11-15T05:42:57;6.60;99.90
33594;DHT22;19920;52.242;20.940;2022-11-15T05:45:25;6.60;99.90
33594;DHT22;19920;52.242;20.940;2022-11-15T05:47:51;6.70;99.90
33594;DHT22;19920;52.242;20.940;2022-11-15T05:50:18;6.70;99.90
33594;DHT22;19920;52.242;20.940;2022-11-15T05:52:45;6.60;99.90
33594;DHT22;19920;52.242;20.940;2022-11-15T05:55:12;6.60;99.90
33594;DHT22;19920;52.242;20.940;2022-11-15T05:57:38;6.50;99.90
33594;DHT22;19920;52.242;20.940;2022-11-15T06:00:04;6.50;99.90
33594;DHT22;19920;52.242;20.940;2022-11-15T06:02:30;6.50;99.90
33594;DHT22;19920;52.242;20.940;2022-11-15T06:04:56;6.60;99.90
33594;DHT22;19920;52.242;20.940;2022-11-15T06:07:22;6.60;99.90
33594;DHT22;19920;52.242;20.940;2022-11-15T06:09:47;6.60;99.90
33594;DHT22;19920;52.242;20.940;2022-11-15T06:12:13;6.60;99.90
33594;DHT22;19920;52.242;20.940;2022-11-15T06:14:39;6.70;99.90
33594;DHT22;19920;52.242;20.940;2022-11-15T06:17:04;6.70;99.90
33594;DHT22;19920;52.242;20.940;2022-11-15T06:19:30;6.70;99.90
33594;DHT22;19920;52.242;20.940;2022-11-15T06:21:59;6.50;99.90
33594;DHT22;19920;52.242;20.940;2022-11-15T06:24:25;6.60;99.90
33594;DHT22;19920;52.242;20.940;2022-11-15T06:26:51;6.60;99.90
33594;DHT22;19920;52.242;20.940;2022-11-15T06:29:16;6.60;99.90
33594;DHT22;19920;52.242;20.940;2022-11-15T06:31:42;6.60;99.90
33594;DHT22;19920;52.242;20.940;2022-11-15T06:34:08;6.60;99.90
33594;DHT22;19920;52.242;20.940;2022-11-15T06:36:37;6.60;99.90
33594;DHT22;19920;52.242;20.940;2022-11-15T06:39:04;6.60;99.90
33594;DHT22;19920;52.242;20.940;2022-11-15T06:41:30;6.60;99.90
33594;DHT22;19920;52.242;20.940;2022-11-15T06:43:56;6.60;99.90
33594;DHT22;19920;52.242;20.940;2022-11-15T06:46:22;6.60;99.90
33594;DHT22;19920;52.242;20.940;2022-11-15T06:48:51;6.60;99.90
33594;DHT22;19920;52.242;20.940;2022-11-15T06:51:16;6.60;99.90
33594;DHT22;19920;52.242;20.940;2022-11-15T06:53:42;6.60;99.90
33594;DHT22;19920;52.242;20.940;2022-11-15T06:56:08;6.60;99.90
33594;DHT22;19920;52.242;20.940;2022-11-15T06:58:35;6.70;99.90
33594;DHT22;19920;52.242;20.940;2022-11-15T07:01:06;6.60;99.90
33594;DHT22;19920;52.242;20.940;2022-11-15T07:03:34;6.60;99.90
33594;DHT22;19920;52.242;20.940;2022-11-15T07:06:00;6.50;99.90
33594;DHT22;19920;52.242;20.940;2022-11-15T07:08:27;6.50;99.90
33594;DHT22;19920;52.242;20.940;2022-11-15T07:10:53;6.50;99.90
33594;DHT22;19920;52.242;20.940;2022-11-15T07:13:20;6.50;99.90
33594;DHT22;19920;52.242;20.940;2022-11-15T07:15:49;6.50;99.90
33594;DHT22;19920;52.242;20.940;2022-11-15T07:18:14;6.60;99.90
33594;DHT22;19920;52.242;20.940;2022-11-15T07:20:40;6.50;99.90
33594;DHT22;19920;52.242;20.940;2022-11-15T07:23:06;6.50;99.90
33594;DHT22;19920;52.242;20.940;2022-11-15T07:25:32;6.50;99.90
33594;DHT22;19920;52.242;20.940;2022-11-15T07:27:58;6.50;99.90
33594;DHT22;19920;52.242;20.940;2022-11-15T07:30:25;6.50;99.90
33594;DHT22;19920;52.242;20.940;2022-11-15T07:32:55;6.50;99.90
33594;DHT22;19920;52.242;20.940;2022-11-15T07:35:20;6.50;99.90
33594;DHT22;19920;52.242;20.940;2022-11-15T07:37:56;6.50;99.90
33594;DHT22;19920;52.242;20.940;2022-11-15T07:40:22;6.40;99.90
33594;DHT22;19920;52.242;20.940;2022-11-15T07:42:48;6.40;99.90
33594;DHT22;19920;52.242;20.940;2022-11-15T07:45:22;6.40;99.90
33594;DHT22;19920;52.242;20.940;2022-11-15T07:47:51;6.40;99.90
33594;DHT22;19920;52.242;20.940;2022-11-15T07:50:17;6.40;99.90
33594;DHT22;19920;52.242;20.940;2022-11-15T07:52:44;6.40;99.90
33594;DHT22;19920;52.242;20.940;2022-11-15T07:55:10;6.40;99.90
33594;DHT22;19920;52.242;20.940;2022-11-15T07:57:35;6.50;99.90
33594;DHT22;19920;52.242;20.940;2022-11-15T08:00:02;6.50;99.90
33594;DHT22;19920;52.242;20.940;2022-11-15T08:02:28;6.50;99.90
33594;DHT22;19920;52.242;20.940;2022-11-15T08:04:53;6.60;99.90
33594;DHT22;19920;52.242;20.940;2022-11-15T08:07:19;6.60;99.90
33594;DHT22;19920;52.242;20.940;2022-11-15T08:09:45;6.70;99.90
33594;DHT22;19920;52.242;20.940;2022-11-15T08:12:10;6.70;99.90
33594;DHT22;19920;52.242;20.940;2022-11-15T08:14:36;6.70;99.90
33594;DHT22;19920;52.242;20.940;2022-11-15T08:17:02;6.80;99.90
33594;DHT22;19920;52.242;20.940;2022-11-15T08:19:27;6.80;99.90
33594;DHT22;19920;52.242;20.940;2022-11-15T08:21:53;6.80;99.90
33594;DHT22;19920;52.242;20.940;2022-11-15T08:24:19;6.90;99.90
33594;DHT22;19920;52.242;20.940;2022-11-15T08:26:45;6.80;99.90
33594;DHT22;19920;52.242;20.940;2022-11-15T08:29:11;6.90;99.90
33594;DHT22;19920;52.242;20.940;2022-11-15T08:31:37;7.00;99.90
33594;DHT22;19920;52.242;20.940;2022-11-15T08:34:05;6.90;99.90
33594;DHT22;19920;52.242;20.940;2022-11-15T08:36:31;6.90;99.90
33594;DHT22;19920;52.242;20.940;2022-11-15T08:38:57;7.00;99.90
33594;DHT22;19920;52.242;20.940;2022-11-15T08:41:32;7.00;99.90
33594;DHT22;19920;52.242;20.940;2022-11-15T08:43:59;7.00;99.90
33594;DHT22;19920;52.242;20.940;2022-11-15T08:46:24;6.90;99.90
33594;DHT22;19920;52.242;20.940;2022-11-15T08:48:50;6.90;99.90
33594;DHT22;19920;52.242;20.940;2022-11-15T08:51:16;7.00;99.90
33594;DHT22;19920;52.242;20.940;2022-11-15T08:53:42;7.00;99.90
33594;DHT22;19920;52.242;20.940;2022-11-15T08:56:09;7.10;99.90
33594;DHT22;19920;52.242;20.940;2022-11-15T08:58:36;7.00;99.90
33594;DHT22;19920;52.242;20.940;2022-11-15T09:01:02;7.10;99.90
33594;DHT22;19920;52.242;20.940;2022-11-15T09:03:27;7.20;99.90
33594;DHT22;19920;52.242;20.940;2022-11-15T09:05:57;7.20;99.90
33594;DHT22;19920;52.242;20.940;2022-11-15T09:08:24;7.20;99.90
33594;DHT22;19920;52.242;20.940;2022-11-15T09:10:50;7.20;99.90
33594;DHT22;19920;52.242;20.940;2022-11-15T09:13:16;7.20;99.90
33594;DHT22;19920;52.242;20.940;2022-11-15T09:15:41;7.10;99.90
33594;DHT22;19920;52.242;20.940;2022-11-15T09:18:07;7.10;99.90
33594;DHT22;19920;52.242;20.940;2022-11-15T09:20:33;7.00;99.90
33594;DHT22;19920;52.242;20.940;2022-11-15T09:23:00;7.20;99.90
33594;DHT22;19920;52.242;20.940;2022-11-15T09:25:26;7.10;99.90
33594;DHT22;19920;52.242;20.940;2022-11-15T09:27:52;7.20;99.90
33594;DHT22;19920;52.242;20.940;2022-11-15T09:30:17;7.20;99.90
33594;DHT22;19920;52.242;20.940;2022-11-15T09:32:43;7.20;99.90
33594;DHT22;19920;52.242;20.940;2022-11-15T09:35:09;7.40;99.90
33594;DHT22;19920;52.242;20.940;2022-11-15T09:37:35;7.40;99.90
33594;DHT22;19920;52.242;20.940;2022-11-15T09:40:01;7.50;99.90
33594;DHT22;19920;52.242;20.940;2022-11-15T09:45:47;7.40;99.90
33594;DHT22;19920;52.242;20.940;2022-11-15T09:48:45;7.50;99.90
33594;DHT22;19920;52.242;20.940;2022-11-15T09:51:23;7.50;99.90
33594;DHT22;19920;52.242;20.940;2022-11-15T09:56:24;7.50;99.90
33594;DHT22;19920;52.242;20.940;2022-11-15T09:59:24;7.50;99.90
33594;DHT22;19920;52.242;20.940;2022-11-15T10:04:37;7.60;99.90
33594;DHT22;19920;52.242;20.940;2022-11-15T10:12:29;7.50;99.90
33594;DHT22;19920;52.242;20.940;2022-11-15T10:15:03;7.40;99.90
33594;DHT22;19920;52.242;20.940;2022-11-15T10:19:58;7.50;99.90
33594;DHT22;19920;52.242;20.940;2022-11-15T10:23:10;7.50;99.90
33594;DHT22;19920;52.242;20.940;2022-11-15T10:25:33;7.50;99.90
33594;DHT22;19920;52.242;20.940;2022-11-15T10:30:36;7.60;99.90
33594;DHT22;19920;52.242;20.940;2022-11-15T10:33:29;7.60;99.90
33594;DHT22;19920;52.242;20.940;2022-11-15T10:36:15;7.50;99.90
33594;DHT22;19920;52.242;20.940;2022-11-15T10:41:22;7.50;99.90
33594;DHT22;19920;52.242;20.940;2022-11-15T10:46:31;7.60;99.90
33594;DHT22;19920;52.242;20.940;2022-11-15T10:49:20;7.70;99.90
33594;DHT22;19920;52.242;20.940;2022-11-15T10:52:14;7.70;99.90
33594;DHT22;19920;52.242;20.940;2022-11-15T10:57:37;7.70;99.90
33594;DHT22;19920;52.242;20.940;2022-11-15T11:00:27;7.70;99.90
33594;DHT22;19920;52.242;20.940;2022-11-15T11:05:39;7.70;99.90
33594;DHT22;19920;52.242;20.940;2022-11-15T11:10:36;7.70;99.90
33594;DHT22;19920;52.242;20.940;2022-11-15T11:13:22;7.60;99.90
33594;DHT22;19920;52.242;20.940;2022-11-15T11:15:58;7.50;99.90
33594;DHT22;19920;52.242;20.940;2022-11-15T11:18:38;7.60;99.90
33594;DHT22;19920;52.242;20.940;2022-11-15T11:21:10;7.70;99.90
33594;DHT22;19920;52.242;20.940;2022-11-15T11:23:59;7.60;99.90
33594;DHT22;19920;52.242;20.940;2022-11-15T11:35:23;8.00;99.90
33594;DHT22;19920;52.242;20.940;2022-11-15T11:37:51;7.80;99.90
33594;DHT22;19920;52.242;20.940;2022-11-15T11:40:34;7.70;99.90
33594;DHT22;19920;52.242;20.940;2022-11-15T11:48:48;7.90;99.90
33594;DHT22;19920;52.242;20.940;2022-11-15T11:51:43;7.80;99.90
33594;DHT22;19920;52.242;20.940;2022-11-15T11:54:16;7.80;99.90
33594;DHT22;19920;52.242;20.940;2022-11-15T11:56:44;7.70;99.90
33594;DHT22;19920;52.242;20.940;2022-11-15T12:02:48;7.80;99.90
33594;DHT22;19920;52.242;20.940;2022-11-15T12:04:50;7.80;99.90
33594;DHT22;19920;52.242;20.940;2022-11-15T12:07:25;7.60;99.90
33594;DHT22;19920;52.242;20.940;2022-11-15T12:10:12;7.70;99.90
33594;DHT22;19920;52.242;20.940;2022-11-15T12:13:10;7.80;99.90
33594;DHT22;19920;52.242;20.940;2022-11-15T12:15:47;7.90;99.90
33594;DHT22;19920;52.242;20.940;2022-11-15T12:18:16;8.00;99.90
33594;DHT22;19920;52.242;20.940;2022-11-15T12:20:58;8.10;99.90
33594;DHT22;19920;52.242;20.940;2022-11-15T12:23:29;7.90;99.90
33594;DHT22;19920;52.242;20.940;2022-11-15T12:26:04;8.00;99.90
33594;DHT22;19920;52.242;20.940;2022-11-15T12:28:41;8.00;99.90
33594;DHT22;19920;52.242;20.940;2022-11-15T12:31:27;7.90;99.90
33594;DHT22;19920;52.242;20.940;2022-11-15T12:33:57;7.90;99.90
33594;DHT22;19920;52.242;20.940;2022-11-15T12:38:50;8.10;99.90
33594;DHT22;19920;52.242;20.940;2022-11-15T12:41:18;8.00;99.90
33594;DHT22;19920;52.242;20.940;2022-11-15T12:43:46;8.00;99.90
33594;DHT22;19920;52.242;20.940;2022-11-15T13:20:16;7.60;99.90
33594;DHT22;19920;52.242;20.940;2022-11-15T13:30:53;7.60;99.90
33594;DHT22;19920;52.242;20.940;2022-11-15T13:36:03;7.70;99.90
33594;DHT22;19920;52.242;20.940;2022-11-15T13:38:32;7.70;99.90
33594;DHT22;19920;52.242;20.940;2022-11-15T13:40:59;7.60;99.90
33594;DHT22;19920;52.242;20.940;2022-11-15T13:48:36;7.60;99.90
33594;DHT22;19920;52.242;20.940;2022-11-15T13:51:06;7.60;99.90
33594;DHT22;19920;52.242;20.940;2022-11-15T13:53:33;7.60;99.90
33594;DHT22;19920;52.242;20.940;2022-11-15T13:56:02;7.50;99.90
33594;DHT22;19920;52.242;20.940;2022-11-15T13:58:29;7.50;99.90
33594;DHT22;19920;52.242;20.940;2022-11-15T14:01:01;7.40;99.90
33594;DHT22;19920;52.242;20.940;2022-11-15T14:03:35;7.40;99.90
33594;DHT22;19920;52.242;20.940;2022-11-15T14:06:24;7.40;99.90
33594;DHT22;19920;52.242;20.940;2022-11-15T14:11:34;7.40;99.90
33594;DHT22;19920;52.242;20.940;2022-11-15T14:19:05;7.40;99.90
33594;DHT22;19920;52.242;20.940;2022-11-15T14:21:32;7.40;99.90
33594;DHT22;19920;52.242;20.940;2022-11-15T14:24:17;7.40;99.90
33594;DHT22;19920;52.242;20.940;2022-11-15T14:26:44;7.40;99.90
33594;DHT22;19920;52.242;20.940;2022-11-15T14:29:29;7.50;99.90
33594;DHT22;19920;52.242;20.940;2022-11-15T14:32:16;7.40;99.90
33594;DHT22;19920;52.242;20.940;2022-11-15T14:34:43;7.50;99.90
33594;DHT22;19920;52.242;20.940;2022-11-15T14:37:26;7.50;99.90
33594;DHT22;19920;52.242;20.940;2022-11-15T14:39:53;7.40;99.90
33594;DHT22;19920;52.242;20.940;2022-11-15T14:42:19;7.40;99.90
33594;DHT22;19920;52.242;20.940;2022-11-15T14:44:46;7.40;99.90
33594;DHT22;19920;52.242;20.940;2022-11-15T14:47:12;7.40;99.90
33594;DHT22;19920;52.242;20.940;2022-11-15T14:49:37;7.30;99.90
33594;DHT22;19920;52.242;20.940;2022-11-15T14:52:24;7.40;99.90
33594;DHT22;19920;52.242;20.940;2022-11-15T14:54:50;7.40;99.90
33594;DHT22;19920;52.242;20.940;2022-11-15T14:57:16;7.40;99.90
33594;DHT22;19920;52.242;20.940;2022-11-15T14:59:42;7.40;99.90
33594;DHT22;19920;52.242;20.940;2022-11-15T15:02:20;7.40;99.90
33594;DHT22;19920;52.242;20.940;2022-11-15T15:04:46;7.30;99.90
33594;DHT22;19920;52.242;20.940;2022-11-15T15:07:12;7.30;99.90
33594;DHT22;19920;52.242;20.940;2022-11-15T15:09:38;7.30;99.90
33594;DHT22;19920;52.242;20.940;2022-11-15T15:12:04;7.30;99.90
33594;DHT22;19920;52.242;20.940;2022-11-15T15:14:32;7.30;99.90
33594;DHT22;19920;52.242;20.940;2022-11-15T15:16:58;7.20;99.90
33594;DHT22;19920;52.242;20.940;2022-11-15T15:19:23;7.30;99.90
33594;DHT22;19920;52.242;20.940;2022-11-15T15:21:49;7.20;99.90
33594;DHT22;19920;52.242;20.940;2022-11-15T15:24:15;7.20;99.90
33594;DHT22;19920;52.242;20.940;2022-11-15T15:26:41;7.20;99.90
33594;DHT22;19920;52.242;20.940;2022-11-15T15:29:06;7.20;99.90
33594;DHT22;19920;52.242;20.940;2022-11-15T15:31:34;7.10;99.90
33594;DHT22;19920;52.242;20.940;2022-11-15T15:34:01;7.00;99.90
33594;DHT22;19920;52.242;20.940;2022-11-15T15:36:27;7.00;99.90
33594;DHT22;19920;52.242;20.940;2022-11-15T15:38:52;7.10;99.90
33594;DHT22;19920;52.242;20.940;2022-11-15T15:41:18;7.00;99.90
33594;DHT22;19920;52.242;20.940;2022-11-15T15:43:44;7.00;99.90
33594;DHT22;19920;52.242;20.940;2022-11-15T15:46:12;7.00;99.90
33594;DHT22;19920;52.242;20.940;2022-11-15T15:48:39;6.80;99.90
33594;DHT22;19920;52.242;20.940;2022-11-15T15:51:05;6.90;99.90
33594;DHT22;19920;52.242;20.940;2022-11-15T15:53:31;7.00;99.90
33594;DHT22;19920;52.242;20.940;2022-11-15T15:55:57;7.00;99.90
33594;DHT22;19920;52.242;20.940;2022-11-15T15:58:23;7.00;99.90
33594;DHT22;19920;52.242;20.940;2022-11-15T16:00:48;7.00;99.90
33594;DHT22;19920;52.242;20.940;2022-11-15T16:03:14;7.00;99.90
33594;DHT22;19920;52.242;20.940;2022-11-15T16:05:40;6.90;99.90
33594;DHT22;19920;52.242;20.940;2022-11-15T16:08:05;7.00;99.90
33594;DHT22;19920;52.242;20.940;2022-11-15T16:10:35;6.90;99.90
33594;DHT22;19920;52.242;20.940;2022-11-15T16:13:02;6.90;99.90
33594;DHT22;19920;52.242;20.940;2022-11-15T16:15:30;6.80;99.90
33594;DHT22;19920;52.242;20.940;2022-11-15T16:17:58;6.80;99.90
33594;DHT22;19920;52.242;20.940;2022-11-15T16:20:39;6.80;99.90
33594;DHT22;19920;52.242;20.940;2022-11-15T16:23:09;6.80;99.90
33594;DHT22;19920;52.242;20.940;2022-11-15T16:26:01;6.90;99.90
33594;DHT22;19920;52.242;20.940;2022-11-15T16:28:32;6.90;99.90
33594;DHT22;19920;52.242;20.940;2022-11-15T16:30:59;6.90;99.90
33594;DHT22;19920;52.242;20.940;2022-11-15T16:33:25;6.90;99.90
33594;DHT22;19920;52.242;20.940;2022-11-15T16:35:50;6.90;99.90
33594;DHT22;19920;52.242;20.940;2022-11-15T16:38:16;6.80;99.90
33594;DHT22;19920;52.242;20.940;2022-11-15T16:40:42;6.80;99.90
33594;DHT22;19920;52.242;20.940;2022-11-15T16:43:09;6.80;99.90
33594;DHT22;19920;52.242;20.940;2022-11-15T16:45:34;6.80;99.90
33594;DHT22;19920;52.242;20.940;2022-11-15T16:48:00;6.80;99.90
33594;DHT22;19920;52.242;20.940;2022-11-15T16:50:29;6.80;99.90
33594;DHT22;19920;52.242;20.940;2022-11-15T16:52:56;6.90;99.90
33594;DHT22;19920;52.242;20.940;2022-11-15T16:55:24;6.90;99.90
33594;DHT22;19920;52.242;20.940;2022-11-15T16:57:50;6.90;99.90
33594;DHT22;19920;52.242;20.940;2022-11-15T17:00:18;6.80;99.90
33594;DHT22;19920;52.242;20.940;2022-11-15T17:02:46;6.90;99.90
33594;DHT22;19920;52.242;20.940;2022-11-15T17:05:13;6.90;99.90
33594;DHT22;19920;52.242;20.940;2022-11-15T17:07:40;6.90;99.90
33594;DHT22;19920;52.242;20.940;2022-11-15T17:10:06;6.90;99.90
33594;DHT22;19920;52.242;20.940;2022-11-15T17:12:34;6.90;99.90
33594;DHT22;19920;52.242;20.940;2022-11-15T17:14:59;7.00;99.90
33594;DHT22;19920;52.242;20.940;2022-11-15T17:17:25;7.00;99.90
33594;DHT22;19920;52.242;20.940;2022-11-15T17:19:52;7.00;99.90
33594;DHT22;19920;52.242;20.940;2022-11-15T17:22:18;7.00;99.90
33594;DHT22;19920;52.242;20.940;2022-11-15T17:24:44;6.90;99.90
33594;DHT22;19920;52.242;20.940;2022-11-15T17:27:10;6.90;99.90
33594;DHT22;19920;52.242;20.940;2022-11-15T17:29:35;6.80;99.90
33594;DHT22;19920;52.242;20.940;2022-11-15T17:32:01;6.80;99.90
33594;DHT22;19920;52.242;20.940;2022-11-15T17:34:27;6.80;99.90
33594;DHT22;19920;52.242;20.940;2022-11-15T17:36:52;6.70;99.90
33594;DHT22;19920;52.242;20.940;2022-11-15T17:39:18;6.60;99.90
33594;DHT22;19920;52.242;20.940;2022-11-15T17:41:45;6.50;99.90
33594;DHT22;19920;52.242;20.940;2022-11-15T17:44:11;6.50;99.90
33594;DHT22;19920;52.242;20.940;2022-11-15T17:46:37;6.50;99.90
33594;DHT22;19920;52.242;20.940;2022-11-15T17:49:05;6.50;99.90
33594;DHT22;19920;52.242;20.940;2022-11-15T17:51:31;6.40;99.90
33594;DHT22;19920;52.242;20.940;2022-11-15T17:53:56;6.50;99.90
33594;DHT22;19920;52.242;20.940;2022-11-15T17:56:24;6.50;99.90
33594;DHT22;19920;52.242;20.940;2022-11-15T17:58:52;6.60;99.90
33594;DHT22;19920;52.242;20.940;2022-11-15T18:01:31;6.50;99.90
33594;DHT22;19920;52.242;20.940;2022-11-15T18:03:57;6.40;99.90
33594;DHT22;19920;52.242;20.940;2022-11-15T18:06:26;6.40;99.90
33594;DHT22;19920;52.242;20.940;2022-11-15T18:08:53;6.50;99.90
33594;DHT22;19920;52.242;20.940;2022-11-15T18:11:24;6.50;99.90